Weather

Time Summary Temperature Precipitation Pressure Wind Humidity
00:00 Clear 12.7 °C N/A 1,022.3mb 1.6 km/h 96%
00:30 Clear 12.5 °C N/A 1,022.3mb 1.6 km/h 97%
01:00 Clear 12.6 °C N/A 1,022.4mb 1.1 km/h 96%
01:30 Clear 12.0 °C N/A 1,022.3mb 1.1 km/h 98%
02:00 Clear 11.4 °C N/A 1,022.2mb 1.4 km/h 100%
02:30 Clear 11.3 °C N/A 1,022.1mb 1.4 km/h 100%
03:00 Clear 11.6 °C N/A 1,022.1mb 1.6 km/h 94%
03:30 Clear 11.5 °C N/A 1,022.0mb 1.5 km/h 95%
04:00 Clear 11.9 °C N/A 1,021.8mb 1.0 km/h 93%
04:30 Clear 12.1 °C N/A 1,021.7mb 1.1 km/h 94%
05:00 Clear 11.1 °C N/A 1,021.7mb 1.2 km/h 97%
05:30 Clear 11.7 °C N/A 1,021.7mb 1.3 km/h 97%
06:00 Clear 12.3 °C N/A 1,021.6mb 0.9 km/h 92%
06:30 Clear 13.1 °C N/A 1,021.6mb 1.2 km/h 90%
07:00 Clear 13.5 °C N/A 1,021.5mb 0.8 km/h 87%
07:30 Clear 14.7 °C N/A 1,021.6mb 1.3 km/h 82%
08:00 Clear 16.6 °C N/A 1,021.7mb 1.2 km/h 79%
08:30 Clear 17.7 °C N/A 1,021.7mb 1.7 km/h 73%
09:00 Clear 19.1 °C N/A 1,021.7mb 2.7 km/h 67%
09:30 Clear 20.1 °C N/A 1,021.7mb 3.0 km/h 63%
10:00 Clear 21.2 °C N/A 1,021.7mb 2.5 km/h 63%
10:30 Clear 21.9 °C N/A 1,021.6mb 2.7 km/h 59%
11:00 Clear 22.7 °C N/A 1,021.3mb 3.0 km/h 57%
11:30 Clear 23.2 °C N/A 1,021.2mb 3.1 km/h 55%
12:00 Partly Cloudy 24.2 °C N/A 1,021.1mb 2.9 km/h 53%
12:30 Clear 24.5 °C N/A 1,020.9mb 3.0 km/h 52%
13:00 Clear 24.9 °C N/A 1,020.6mb 3.7 km/h 50%
13:30 Clear 25.2 °C N/A 1,020.4mb 3.8 km/h 49%
14:00 Clear 25.6 °C N/A 1,020.1mb 3.4 km/h 48%
14:30 Partly Cloudy 25.7 °C N/A 1,019.9mb 3.6 km/h 47%
15:00 Partly Cloudy 25.6 °C N/A 1,019.7mb 4.1 km/h 47%
15:30 Partly Cloudy 25.6 °C N/A 1,019.5mb 4.2 km/h 47%
16:00 Partly Cloudy 25.9 °C N/A 1,019.4mb 4.3 km/h 46%
16:30 Partly Cloudy 24.4 °C N/A 1,018.4mb 2.6 km/h 46%
17:00 Partly Cloudy 23.9 °C N/A 1,018.0mb 2.0 km/h 50%
17:30 Partly Cloudy 23.7 °C N/A 1,017.8mb 2.8 km/h 50%
18:00 Mostly Cloudy 23.9 °C N/A 1,017.6mb 4.1 km/h 49%
18:30 Partly Cloudy 23.3 °C N/A 1,017.6mb 4.1 km/h 51%
19:00 Clear 23.1 °C N/A 1,017.4mb 4.1 km/h 50%
19:30 Clear 21.9 °C N/A 1,017.4mb 3.9 km/h 53%
20:00 Clear 21.9 °C N/A 1,017.4mb 2.4 km/h 53%
20:30 Clear 20.6 °C N/A 1,017.6mb 2.3 km/h 57%
21:00 Partly Cloudy 19.9 °C N/A 1,017.8mb 3.9 km/h 61%
21:30 Clear 18.6 °C N/A 1,017.9mb 3.4 km/h 65%
22:00 Clear 17.9 °C N/A 1,017.9mb 3.3 km/h 68%
22:30 Clear 17.0 °C N/A 1,017.9mb 3.0 km/h 71%
23:00 Partly Cloudy 16.6 °C N/A 1,018.0mb 3.0 km/h 74%
23:30 Clear 15.8 °C N/A 1,018.1mb 2.8 km/h 76%